createdAt,value
2022-10-11T00:00:45.127Z,100495.63
2022-10-11T00:03:14.737Z,100504.41
2022-10-11T00:05:44.207Z,100499.59
2022-10-11T00:08:13.266Z,100494.25
2022-10-11T00:10:41.529Z,100497.53
2022-10-11T00:13:11.166Z,100483.97
2022-10-11T00:15:41.622Z,100477.44
2022-10-11T00:18:09.904Z,100492.34
2022-10-11T00:20:38.201Z,100495.81
2022-10-11T00:23:06.253Z,100493.88
2022-10-11T00:25:34.336Z,100494.97
2022-10-11T00:28:02.551Z,100497.56
2022-10-11T00:30:32.553Z,100495.94
2022-10-11T00:33:00.678Z,100493.25
2022-10-11T00:35:28.660Z,100495.19
2022-10-11T00:37:58.401Z,100486.84
2022-10-11T00:40:26.577Z,100473.69
2022-10-11T00:42:54.567Z,100475.69
2022-10-11T00:46:01.916Z,100474.66
2022-10-11T00:48:39.199Z,100470.56
2022-10-11T00:51:15.276Z,100474.16
2022-10-11T00:53:44.650Z,100472.31
2022-10-11T00:56:18.372Z,100468.19
2022-10-11T00:58:46.817Z,100456.66
2022-10-11T01:01:15.179Z,100461.13
2022-10-11T01:03:45.651Z,100458.34
2022-10-11T01:06:13.912Z,100444.38
2022-10-11T01:08:43.179Z,100448.00
2022-10-11T01:11:15.804Z,100468.50
2022-10-11T01:13:56.804Z,100461.88
2022-10-11T01:16:32.533Z,100459.13
2022-10-11T01:19:15.652Z,100459.25
2022-10-11T01:21:49.836Z,100448.59
2022-10-11T01:24:53.421Z,100454.75
2022-10-11T01:27:47.395Z,100450.59
2022-10-11T01:30:28.867Z,100453.28
2022-10-11T01:33:08.255Z,100449.94
2022-10-11T01:35:42.700Z,100454.63
2022-10-11T01:38:17.499Z,100444.28
2022-10-11T01:40:50.182Z,100440.22
2022-10-11T01:43:20.437Z,100434.22
2022-10-11T01:45:53.359Z,100439.06
2022-10-11T01:48:21.736Z,100415.06
2022-10-11T01:50:52.395Z,100431.13
2022-10-11T01:53:39.202Z,100431.84
2022-10-11T01:56:18.292Z,100434.22
2022-10-11T01:59:00.273Z,100432.81
2022-10-11T02:01:41.538Z,100408.44
2022-10-11T02:04:18.041Z,100427.41
2022-10-11T02:06:52.247Z,100424.88
2022-10-11T02:09:26.806Z,100422.41
2022-10-11T02:11:59.564Z,100416.44
2022-10-11T02:14:33.107Z,100406.78
2022-10-11T02:17:08.214Z,100430.88
2022-10-11T02:19:40.558Z,100429.63
2022-10-11T02:22:14.595Z,100430.59
2022-10-11T02:24:47.357Z,100429.06
2022-10-11T02:27:17.521Z,100435.84
2022-10-11T02:29:47.588Z,100433.88
2022-10-11T02:32:18.789Z,100434.22
2022-10-11T02:34:51.978Z,100417.72
2022-10-11T02:37:26.928Z,100431.56
2022-10-11T02:39:58.207Z,100427.97
2022-10-11T02:42:30.720Z,100424.44
2022-10-11T02:45:03.828Z,100427.63
2022-10-11T02:47:33.604Z,100431.19
2022-10-11T02:50:01.947Z,100422.09
2022-10-11T02:52:30.163Z,100421.59
2022-10-11T02:54:58.289Z,100420.91
2022-10-11T02:57:27.266Z,100390.34
2022-10-11T02:59:55.687Z,100413.91
2022-10-11T03:02:23.863Z,100418.94
2022-10-11T03:04:53.374Z,100410.16
2022-10-11T03:07:21.472Z,100421.09
2022-10-11T03:09:49.704Z,100413.69
2022-10-11T03:12:17.865Z,100404.59
2022-10-11T03:14:46.208Z,100415.72
2022-10-11T03:17:35.149Z,100413.50
2022-10-11T03:20:03.587Z,100416.53
2022-10-11T03:22:31.628Z,100410.75
2022-10-11T03:25:03.565Z,100416.38
2022-10-11T03:27:32.564Z,100412.41
2022-10-11T03:30:00.963Z,100414.72
2022-10-11T03:32:28.976Z,100413.88
2022-10-11T03:34:57.157Z,100417.09
2022-10-11T03:37:26.782Z,100415.97
2022-10-11T03:39:55.022Z,100411.88
2022-10-11T03:42:23.276Z,100415.00
2022-10-11T03:44:52.174Z,100412.06
2022-10-11T03:47:20.811Z,100414.16
2022-10-11T03:49:48.794Z,100406.97
2022-10-11T03:52:16.877Z,100413.59
2022-10-11T03:54:46.254Z,100411.41
2022-10-11T03:57:14.301Z,100406.56
2022-10-11T03:59:42.368Z,100401.16
2022-10-11T04:02:10.436Z,100405.78
2022-10-11T04:04:38.885Z,100405.25
2022-10-11T04:07:07.248Z,100391.88
2022-10-11T04:09:35.337Z,100400.78
2022-10-11T04:12:05.455Z,100395.63
2022-10-11T04:14:33.678Z,100397.31
2022-10-11T04:17:01.761Z,100402.13
2022-10-11T04:19:30.163Z,100402.97
2022-10-11T04:21:58.108Z,100401.09
2022-10-11T04:24:26.078Z,100397.19
2022-10-11T04:26:54.061Z,100395.25
2022-10-11T04:29:24.600Z,100393.41
2022-10-11T04:31:54.683Z,100379.09
2022-10-11T04:34:22.614Z,100391.03
2022-10-11T04:36:50.673Z,100397.28
2022-10-11T04:39:18.969Z,100406.81
2022-10-11T04:41:47.014Z,100404.63
2022-10-11T04:44:15.071Z,100402.88
2022-10-11T04:46:44.656Z,100410.88
2022-10-11T04:49:12.813Z,100406.81
2022-10-11T04:51:40.876Z,100406.31
2022-10-11T04:54:08.818Z,100411.03
2022-10-11T04:56:36.985Z,100407.78
2022-10-11T04:59:06.290Z,100406.13
2022-10-11T05:01:34.863Z,100389.75
2022-10-11T05:04:04.621Z,100390.59
2022-10-11T05:06:33.041Z,100411.31
2022-10-11T05:09:01.590Z,100411.41
2022-10-11T05:11:29.703Z,100384.22
2022-10-11T05:13:57.691Z,100418.94
2022-10-11T05:16:25.893Z,100408.84
2022-10-11T05:18:54.168Z,100411.94
2022-10-11T05:21:25.754Z,100401.81
2022-10-11T05:23:56.516Z,100403.94
2022-10-11T05:26:26.404Z,100407.09
2022-10-11T05:28:55.892Z,100403.84
2022-10-11T05:31:24.025Z,100404.75
2022-10-11T05:33:52.146Z,100398.47
2022-10-11T05:36:20.366Z,100397.53
2022-10-11T05:38:49.796Z,100392.72
2022-10-11T05:41:18.581Z,100402.88
2022-10-11T05:43:46.775Z,100404.19
2022-10-11T05:46:15.204Z,100402.78
2022-10-11T05:48:43.381Z,100402.13
2022-10-11T05:51:13.569Z,100410.34
2022-10-11T05:53:41.680Z,100417.09
2022-10-11T05:56:20.740Z,100411.75
2022-10-11T05:58:49.922Z,100418.69
2022-10-11T06:01:19.984Z,100424.28
2022-10-11T06:03:48.240Z,100425.25
2022-10-11T06:06:16.864Z,100432.41
2022-10-11T06:08:45.520Z,100408.75
2022-10-11T06:11:15.775Z,100437.78
2022-10-11T06:13:45.241Z,100446.53
2022-10-11T06:16:14.387Z,100437.81
2022-10-11T06:18:42.498Z,100425.75
2022-10-11T06:21:10.687Z,100431.66
2022-10-11T06:23:38.763Z,100415.34
2022-10-11T06:26:09.349Z,100419.28
2022-10-11T06:28:39.077Z,100433.59
2022-10-11T06:31:09.215Z,100412.13
2022-10-11T06:33:37.775Z,100440.84
2022-10-11T06:36:08.882Z,100436.59
2022-10-11T06:38:42.277Z,100444.13
2022-10-11T06:41:14.736Z,100444.09
2022-10-11T06:43:42.804Z,100445.75
2022-10-11T06:46:12.958Z,100433.38
2022-10-11T06:48:41.283Z,100447.69
2022-10-11T06:51:09.645Z,100448.56
2022-10-11T06:53:38.027Z,100458.13
2022-10-11T06:56:07.922Z,100453.19
2022-10-11T06:58:36.829Z,100454.28
2022-10-11T07:01:07.337Z,100446.13
2022-10-11T07:03:37.318Z,100448.22
2022-10-11T07:06:08.580Z,100444.75
2022-10-11T07:08:37.647Z,100447.53
2022-10-11T07:11:08.906Z,100454.59
2022-10-11T07:13:37.214Z,100450.34
2022-10-11T07:16:07.001Z,100441.31
2022-10-11T07:18:36.860Z,100425.75
2022-10-11T07:21:07.011Z,100447.81
2022-10-11T07:23:35.665Z,100443.94
2022-10-11T07:26:04.256Z,100444.09
2022-10-11T07:28:33.093Z,100443.56
2022-10-11T07:31:06.670Z,100438.44
2022-10-11T07:33:36.356Z,100437.59
2022-10-11T07:36:05.177Z,100433.03
2022-10-11T07:38:33.782Z,100433.28
2022-10-11T07:41:06.998Z,100439.09
2022-10-11T07:43:35.428Z,100438.97
2022-10-11T07:46:04.916Z,100444.69
2022-10-11T07:48:34.065Z,100438.28
2022-10-11T07:51:09.115Z,100438.19
2022-10-11T07:53:41.982Z,100442.28
2022-10-11T07:56:12.523Z,100438.84
2022-10-11T07:58:41.522Z,100435.91
2022-10-11T08:01:10.437Z,100427.59
2022-10-11T08:03:39.493Z,100432.06
2022-10-11T08:06:11.063Z,100425.63
2022-10-11T08:08:39.477Z,100424.78
2022-10-11T08:11:08.087Z,100422.56
2022-10-11T08:13:36.711Z,100421.75
2022-10-11T08:16:11.258Z,100427.91
2022-10-11T08:18:39.673Z,100419.56
2022-10-11T08:21:10.528Z,100427.63
2022-10-11T08:23:39.071Z,100431.53
2022-10-11T08:26:08.469Z,100436.69
2022-10-11T08:28:37.334Z,100436.78
2022-10-11T08:31:05.750Z,100422.91
2022-10-11T08:33:33.872Z,100410.09
2022-10-11T08:36:06.091Z,100422.88
2022-10-11T08:38:38.284Z,100422.75
2022-10-11T08:41:23.136Z,100429.72
2022-10-11T08:43:59.596Z,100416.66
2022-10-11T08:46:32.375Z,100415.69
2022-10-11T08:49:02.932Z,100431.66
2022-10-11T08:51:34.977Z,100404.16
2022-10-11T08:54:08.635Z,100440.00
2022-10-11T08:56:39.982Z,100423.47
2022-10-11T08:59:22.669Z,100421.94
2022-10-11T09:01:56.623Z,100419.03
2022-10-11T09:04:24.765Z,100422.34
2022-10-11T09:07:03.961Z,100417.06
2022-10-11T09:09:51.090Z,100421.78
2022-10-11T09:12:29.515Z,100428.97
2022-10-11T09:15:16.596Z,100418.97
2022-10-11T09:18:09.796Z,100416.88
2022-10-11T09:20:47.699Z,100414.44
2022-10-11T09:23:30.580Z,100408.00
2022-10-11T09:26:06.275Z,100409.00
2022-10-11T09:28:47.471Z,100410.38
2022-10-11T09:31:15.536Z,100409.06
2022-10-11T09:33:47.204Z,100385.97
2022-10-11T09:36:23.579Z,100405.03
2022-10-11T09:39:01.814Z,100387.34
2022-10-11T09:41:39.893Z,100408.16
2022-10-11T09:44:08.664Z,100403.50
2022-10-11T09:46:38.771Z,100408.50
2022-10-11T09:49:11.107Z,100411.53
2022-10-11T09:51:41.839Z,100406.84
2022-10-11T09:54:10.855Z,100403.31
2022-10-11T09:56:45.088Z,100388.81
2022-10-11T09:59:27.169Z,100389.53
2022-10-11T10:02:21.271Z,100386.31
2022-10-11T10:05:15.487Z,100382.84
2022-10-11T10:08:04.224Z,100374.69
2022-10-11T10:10:38.803Z,100362.28
2022-10-11T10:13:21.797Z,100362.22
2022-10-11T10:15:53.653Z,100364.03
2022-10-11T10:18:25.225Z,100358.50
2022-10-11T10:20:55.310Z,100354.09
2022-10-11T10:23:27.218Z,100350.56
2022-10-11T10:26:11.909Z,100353.66
2022-10-11T10:29:00.850Z,100351.75
2022-10-11T10:31:49.570Z,100349.16
2022-10-11T10:34:28.785Z,100349.22
2022-10-11T10:37:01.399Z,100346.41
2022-10-11T10:39:38.106Z,100337.19
2022-10-11T10:42:15.445Z,100337.81
2022-10-11T10:44:46.141Z,100331.53
2022-10-11T10:47:23.051Z,100336.28
2022-10-11T10:49:58.326Z,100338.22
2022-10-11T10:52:49.248Z,100329.81
2022-10-11T10:55:26.333Z,100323.09
2022-10-11T10:58:09.825Z,100319.53
2022-10-11T11:00:47.058Z,100325.97
2022-10-11T11:03:23.219Z,100325.38
2022-10-11T11:06:00.992Z,100302.13
2022-10-11T11:08:46.732Z,100326.84
2022-10-11T11:11:29.735Z,100315.50
2022-10-11T11:14:04.327Z,100318.41
2022-10-11T11:16:40.579Z,100309.81
2022-10-11T11:19:22.448Z,100304.34
2022-10-11T11:21:58.599Z,100308.81
2022-10-11T11:24:40.738Z,100301.34
2022-10-11T11:27:20.953Z,100293.06
2022-10-11T11:30:01.357Z,100287.34
2022-10-11T11:32:45.585Z,100287.47
2022-10-11T11:35:25.765Z,100276.75
2022-10-11T11:38:03.863Z,100272.44
2022-10-11T11:40:38.358Z,100278.53
2022-10-11T11:43:13.707Z,100272.94
2022-10-11T11:45:48.533Z,100275.75
2022-10-11T11:48:20.913Z,100274.44
2022-10-11T11:50:56.736Z,100283.38
2022-10-11T11:53:35.986Z,100277.41
2022-10-11T11:56:11.472Z,100278.75
2022-10-11T11:58:49.811Z,100274.94
2022-10-11T12:01:30.934Z,100279.72
2022-10-11T12:04:06.556Z,100179.50
2022-10-11T12:06:40.310Z,100278.09
2022-10-11T12:09:23.738Z,100280.91
2022-10-11T12:11:56.713Z,100276.88
2022-10-11T12:14:36.573Z,100274.16
2022-10-11T12:17:17.652Z,100274.34
2022-10-11T12:20:07.756Z,100272.59
2022-10-11T12:22:54.882Z,100272.38
2022-10-11T12:25:42.262Z,100264.44
2022-10-11T12:28:49.700Z,100271.72
2022-10-11T12:31:25.582Z,100270.03
2022-10-11T12:34:06.744Z,100264.06
2022-10-11T12:36:44.024Z,100255.06
2022-10-11T12:39:50.903Z,100251.31
2022-10-11T12:42:32.887Z,100243.41
2022-10-11T12:45:32.432Z,100255.66
2022-10-11T12:48:11.719Z,100257.13
2022-10-11T12:51:02.158Z,100253.06
2022-10-11T12:54:25.579Z,100260.34
2022-10-11T12:57:14.162Z,100269.50
2022-10-11T12:59:45.905Z,100264.06
2022-10-11T13:02:28.839Z,100259.41
2022-10-11T13:05:08.895Z,100274.78
2022-10-11T13:07:37.169Z,100253.56
2022-10-11T13:10:07.509Z,100268.00
2022-10-11T13:12:41.655Z,100279.66
2022-10-11T13:15:16.153Z,100255.31
2022-10-11T13:17:44.643Z,100280.88
2022-10-11T13:20:19.345Z,100265.00
2022-10-11T13:22:50.021Z,100268.00
2022-10-11T13:25:22.607Z,100273.47
2022-10-11T13:27:52.535Z,100257.06
2022-10-11T13:30:23.645Z,100261.22
2022-10-11T13:32:53.522Z,100266.75
2022-10-11T13:35:26.778Z,100260.88
2022-10-11T13:37:54.872Z,100255.47
2022-10-11T13:40:25.207Z,100251.63
2022-10-11T13:42:55.086Z,100250.50
2022-10-11T13:45:25.370Z,100230.75
2022-10-11T13:47:54.691Z,100217.94
2022-10-11T13:50:31.007Z,100236.53
2022-10-11T13:53:01.267Z,100236.22
2022-10-11T13:55:34.706Z,100234.56
2022-10-11T13:58:05.169Z,100241.34
2022-10-11T14:00:36.036Z,100243.69
2022-10-11T14:03:08.130Z,100251.28
2022-10-11T14:05:40.043Z,100245.31
2022-10-11T14:08:20.863Z,100248.44
2022-10-11T14:10:55.790Z,100246.31
2022-10-11T14:13:26.821Z,100243.09
2022-10-11T14:16:04.061Z,100247.41
2022-10-11T14:18:43.663Z,100244.25
2022-10-11T14:21:27.139Z,100239.09
2022-10-11T14:23:56.749Z,100239.00
2022-10-11T14:26:27.987Z,100238.50
2022-10-11T14:28:59.236Z,100228.03
2022-10-11T14:31:28.420Z,100220.41
2022-10-11T14:33:57.287Z,100220.44
2022-10-11T14:36:25.304Z,100223.44
2022-10-11T14:38:54.268Z,100213.16
2022-10-11T14:41:22.650Z,100219.97
2022-10-11T14:43:53.239Z,100211.66
2022-10-11T14:46:23.967Z,100182.44
2022-10-11T14:48:56.015Z,100216.94
2022-10-11T14:51:28.684Z,100199.69
2022-10-11T14:53:56.707Z,100209.06
2022-10-11T14:56:24.670Z,100216.81
2022-10-11T14:58:54.101Z,100193.06
2022-10-11T15:01:22.182Z,100214.53
2022-10-11T15:03:50.256Z,100210.38
2022-10-11T15:06:21.161Z,100223.16
2022-10-11T15:08:49.750Z,100222.78
2022-10-11T15:11:20.206Z,100224.91
2022-10-11T15:13:48.595Z,100223.28
2022-10-11T15:16:21.373Z,100218.28
2022-10-11T15:18:52.064Z,100219.56
2022-10-11T15:21:21.945Z,100217.28
2022-10-11T15:23:51.494Z,100223.41
2022-10-11T15:26:21.422Z,100230.81
2022-10-11T15:28:50.310Z,100225.59
2022-10-11T15:31:19.798Z,100225.91
2022-10-11T15:33:48.333Z,100199.22
2022-10-11T15:36:19.356Z,100217.16
2022-10-11T15:38:48.172Z,100220.38
2022-10-11T15:41:19.014Z,100218.81
2022-10-11T15:43:48.992Z,100211.91
2022-10-11T15:46:20.777Z,100216.16
2022-10-11T15:48:49.744Z,100215.09
2022-10-11T15:51:18.537Z,100216.03
2022-10-11T15:53:46.865Z,100221.38
2022-10-11T15:56:18.756Z,100216.03
2022-10-11T15:58:47.412Z,100217.31
2022-10-11T16:01:17.648Z,100229.91
2022-10-11T16:03:48.107Z,100233.84
2022-10-11T16:06:16.397Z,100235.69
2022-10-11T16:08:44.592Z,100227.44
2022-10-11T16:11:14.088Z,100229.09
2022-10-11T16:13:42.064Z,100233.03
2022-10-11T16:16:11.186Z,100239.53
2022-10-11T16:18:39.520Z,100238.41
2022-10-11T16:21:10.975Z,100233.63
2022-10-11T16:23:39.540Z,100240.81
2022-10-11T16:26:10.767Z,100250.78
2022-10-11T16:28:39.277Z,100249.72
2022-10-11T16:31:08.877Z,100252.53
2022-10-11T16:33:45.487Z,100254.38
2022-10-11T16:36:34.772Z,100260.59
2022-10-11T16:39:06.507Z,100258.19
2022-10-11T16:41:34.420Z,100264.28
2022-10-11T16:44:02.553Z,100258.31
2022-10-11T16:46:30.545Z,100233.41
2022-10-11T16:48:58.760Z,100259.53
2022-10-11T16:51:28.416Z,100271.44
2022-10-11T16:53:56.353Z,100267.44
2022-10-11T16:56:25.188Z,100271.06
2022-10-11T16:58:54.407Z,100266.13
2022-10-11T17:01:23.133Z,100267.19
2022-10-11T17:03:51.800Z,100270.38
2022-10-11T17:06:20.404Z,100268.06
2022-10-11T17:08:50.503Z,100263.09
2022-10-11T17:11:19.473Z,100270.66
2022-10-11T17:13:47.916Z,100267.03
2022-10-11T17:16:16.694Z,100267.03
2022-10-11T17:18:45.341Z,100266.94
2022-10-11T17:21:16.312Z,100265.53
2022-10-11T17:23:44.667Z,100260.50
2022-10-11T17:26:17.733Z,100267.19
2022-10-11T17:28:49.137Z,100267.59
2022-10-11T17:31:18.196Z,100261.47
2022-10-11T17:33:46.496Z,100260.81
2022-10-11T17:36:18.631Z,100258.84
2022-10-11T17:38:46.764Z,100259.34
2022-10-11T17:41:16.581Z,100264.13
2022-10-11T17:43:44.742Z,100270.38
2022-10-11T17:46:14.571Z,100261.63
2022-10-11T17:48:42.911Z,100265.09
2022-10-11T17:51:13.242Z,100262.31
2022-10-11T17:53:41.464Z,100263.16
2022-10-11T17:56:12.278Z,100254.97
2022-10-11T17:58:42.095Z,100260.94
2022-10-11T18:01:13.136Z,100265.09
2022-10-11T18:03:41.512Z,100263.19
2022-10-11T18:06:12.184Z,100267.13
2022-10-11T18:08:41.843Z,100261.22
2022-10-11T18:11:14.987Z,100257.09
2022-10-11T18:13:46.535Z,100264.03
2022-10-11T18:16:15.683Z,100262.38
2022-10-11T18:18:44.467Z,100247.16
2022-10-11T18:21:13.452Z,100271.63
2022-10-11T18:23:42.119Z,100271.84
2022-10-11T18:26:12.526Z,100275.47
2022-10-11T18:28:41.837Z,100277.53
2022-10-11T18:31:14.698Z,100269.00
2022-10-11T18:33:45.992Z,100273.16
2022-10-11T18:36:16.513Z,100274.97
2022-10-11T18:38:46.809Z,100272.06
2022-10-11T18:41:16.801Z,100276.91
2022-10-11T18:43:50.203Z,100275.28
2022-10-11T18:46:20.866Z,100285.56
2022-10-11T18:48:51.034Z,100276.22
2022-10-11T18:51:22.343Z,100274.03
2022-10-11T18:53:51.724Z,100288.16
2022-10-11T18:56:22.380Z,100286.09
2022-10-11T18:58:52.952Z,100286.50
2022-10-11T19:01:24.814Z,100287.31
2022-10-11T19:03:56.621Z,100283.59
2022-10-11T19:06:26.576Z,100281.50
2022-10-11T19:08:57.538Z,100285.94
2022-10-11T19:11:25.984Z,100261.41
2022-10-11T19:13:57.952Z,100276.66
2022-10-11T19:16:29.620Z,100275.53
2022-10-11T19:18:58.797Z,100270.34
2022-10-11T19:21:27.504Z,100268.16
2022-10-11T19:23:57.449Z,100268.16
2022-10-11T19:26:31.352Z,100268.34
2022-10-11T19:29:01.681Z,100251.66
2022-10-11T19:31:32.248Z,100267.38
2022-10-11T19:34:00.295Z,100249.22
2022-10-11T19:36:33.940Z,100269.16
2022-10-11T19:39:04.321Z,100273.06
2022-10-11T19:41:32.578Z,100275.00
2022-10-11T19:44:00.944Z,100273.28
2022-10-11T19:49:21.703Z,100272.22
2022-10-11T19:51:49.794Z,100276.53
2022-10-11T19:54:18.367Z,100276.66
2022-10-11T19:56:46.516Z,100273.34
2022-10-11T19:59:16.029Z,100282.50
2022-10-11T20:01:51.973Z,100265.91
2022-10-11T20:07:09.901Z,100263.09
2022-10-11T20:09:38.013Z,100283.75
2022-10-11T20:12:06.629Z,100289.19
2022-10-11T20:14:35.036Z,100283.91
2022-10-11T20:17:05.715Z,100287.69
2022-10-11T20:19:33.794Z,100284.16
2022-10-11T20:22:02.454Z,100275.31
2022-10-11T20:24:33.664Z,100292.22
2022-10-11T20:27:05.028Z,100293.78
2022-10-11T20:29:33.029Z,100294.75
2022-10-11T20:32:01.115Z,100290.19
2022-10-11T20:34:30.758Z,100294.97
2022-10-11T20:36:59.255Z,100288.97
2022-10-11T20:39:27.810Z,100287.53
2022-10-11T20:41:55.908Z,100289.25
2022-10-11T20:44:24.037Z,100293.50
2022-10-11T20:46:52.373Z,100288.72
2022-10-11T20:49:22.621Z,100299.94
2022-10-11T20:51:52.191Z,100292.44
2022-10-11T20:54:20.189Z,100295.34
2022-10-11T20:56:48.143Z,100295.34
2022-10-11T20:59:16.193Z,100296.72
2022-10-11T21:01:44.702Z,100308.97
2022-10-11T21:04:18.974Z,100300.38
2022-10-11T21:06:48.854Z,100308.28
2022-10-11T21:09:19.213Z,100301.91
2022-10-11T21:11:47.634Z,100299.97
2022-10-11T21:14:15.923Z,100285.41
2022-10-11T21:16:44.082Z,100295.66
2022-10-11T21:19:16.431Z,100300.94
2022-10-11T21:21:49.716Z,100303.97
2022-10-11T21:24:23.002Z,100310.09
2022-10-11T21:26:51.031Z,100305.25
2022-10-11T21:29:19.395Z,100309.88
2022-10-11T21:31:47.410Z,100314.03
2022-10-11T21:34:15.719Z,100306.28
2022-10-11T21:36:44.118Z,100315.59
2022-10-11T21:39:12.253Z,100314.19
2022-10-11T21:41:42.255Z,100317.53
2022-10-11T21:44:10.699Z,100320.69
2022-10-11T21:49:26.760Z,100303.66
2022-10-11T21:51:55.239Z,100303.19
2022-10-11T21:54:23.944Z,100315.41
2022-10-11T21:56:53.475Z,100315.00
2022-10-11T21:59:21.858Z,100304.91
2022-10-11T22:01:50.010Z,100310.31
2022-10-11T22:04:18.128Z,100311.28
2022-10-11T22:06:46.300Z,100308.63
2022-10-11T22:09:14.495Z,100310.88
2022-10-11T22:11:42.509Z,100287.97
2022-10-11T22:14:12.115Z,100303.53
2022-10-11T22:16:40.055Z,100291.88
2022-10-11T22:19:08.812Z,100285.22
2022-10-11T22:21:39.158Z,100310.88
2022-10-11T22:24:10.569Z,100301.16
2022-10-11T22:26:38.635Z,100309.91
2022-10-11T22:29:06.704Z,100314.06
2022-10-11T22:31:36.560Z,100290.63
2022-10-11T22:34:05.286Z,100307.81
2022-10-11T22:36:33.832Z,100309.22
2022-10-11T22:39:02.999Z,100304.91
2022-10-11T22:41:30.999Z,100306.03
2022-10-11T22:43:59.019Z,100308.78
2022-10-11T22:46:27.205Z,100307.53
2022-10-11T22:48:56.580Z,100322.53
2022-10-11T22:51:24.924Z,100315.88
2022-10-11T22:53:53.748Z,100318.25
2022-10-11T22:56:21.756Z,100310.44
2022-10-11T22:58:49.797Z,100314.84
2022-10-11T23:01:17.990Z,100319.59
2022-10-11T23:03:50.757Z,100312.38
2022-10-11T23:06:20.309Z,100318.78
2022-10-11T23:08:48.280Z,100311.09
2022-10-11T23:11:16.672Z,100314.81
2022-10-11T23:13:44.864Z,100316.78
2022-10-11T23:16:14.020Z,100320.81
2022-10-11T23:18:42.779Z,100326.81
2022-10-11T23:21:10.920Z,100282.78
2022-10-11T23:23:40.831Z,100325.53
2022-10-11T23:26:12.071Z,100322.19
2022-10-11T23:28:40.629Z,100326.78
2022-10-11T23:31:11.122Z,100321.66
2022-10-11T23:33:39.415Z,100324.66
2022-10-11T23:36:13.903Z,100317.81
2022-10-11T23:38:43.804Z,100321.44
2022-10-11T23:41:12.001Z,100322.78
2022-10-11T23:43:40.117Z,100327.03
2022-10-11T23:46:08.314Z,100322.41
2022-10-11T23:48:36.378Z,100326.31
2022-10-11T23:51:04.850Z,100326.66
2022-10-11T23:53:32.952Z,100323.78
2022-10-11T23:56:02.466Z,100315.28
2022-10-11T23:58:30.653Z,100317.28
